sensor_id;sensor_type;location;lat;lon;timestamp;P1;durP1;ratioP1;P2;durP2;ratioP2
31746;SDS011;18319;48.974;8.462;2023-06-26T00:01:38;6.38;;;5.78;;
31746;SDS011;18319;48.974;8.462;2023-06-26T00:04:05;4.72;;;4.32;;
31746;SDS011;18319;48.974;8.462;2023-06-26T00:06:32;6.30;;;5.70;;
31746;SDS011;18319;48.974;8.462;2023-06-26T00:09:00;6.10;;;5.57;;
31746;SDS011;18319;48.974;8.462;2023-06-26T00:11:27;6.25;;;5.65;;
31746;SDS011;18319;48.974;8.462;2023-06-26T00:13:55;5.78;;;5.28;;
31746;SDS011;18319;48.974;8.462;2023-06-26T00:16:23;4.55;;;4.15;;
31746;SDS011;18319;48.974;8.462;2023-06-26T00:18:50;5.45;;;5.00;;
31746;SDS011;18319;48.974;8.462;2023-06-26T00:21:17;5.25;;;4.75;;
31746;SDS011;18319;48.974;8.462;2023-06-26T00:23:44;6.05;;;5.22;;
31746;SDS011;18319;48.974;8.462;2023-06-26T00:26:10;5.55;;;5.05;;
31746;SDS011;18319;48.974;8.462;2023-06-26T00:28:37;6.25;;;5.65;;
31746;SDS011;18319;48.974;8.462;2023-06-26T00:31:04;6.05;;;5.45;;
31746;SDS011;18319;48.974;8.462;2023-06-26T00:33:32;5.97;;;5.38;;
31746;SDS011;18319;48.974;8.462;2023-06-26T00:35:59;5.50;;;5.00;;
31746;SDS011;18319;48.974;8.462;2023-06-26T00:38:26;5.82;;;5.22;;
31746;SDS011;18319;48.974;8.462;2023-06-26T00:40:52;5.93;;;5.43;;
31746;SDS011;18319;48.974;8.462;2023-06-26T00:43:21;5.78;;;5.28;;
31746;SDS011;18319;48.974;8.462;2023-06-26T00:45:47;8.30;;;5.03;;
31746;SDS011;18319;48.974;8.462;2023-06-26T00:48:14;5.00;;;4.63;;
31746;SDS011;18319;48.974;8.462;2023-06-26T00:50:42;5.90;;;5.32;;
31746;SDS011;18319;48.974;8.462;2023-06-26T00:53:09;6.45;;;5.35;;
31746;SDS011;18319;48.974;8.462;2023-06-26T00:55:37;5.78;;;5.32;;
31746;SDS011;18319;48.974;8.462;2023-06-26T00:58:04;5.13;;;4.72;;
31746;SDS011;18319;48.974;8.462;2023-06-26T01:00:31;6.20;;;5.60;;
31746;SDS011;18319;48.974;8.462;2023-06-26T01:02:58;6.55;;;5.95;;
31746;SDS011;18319;48.974;8.462;2023-06-26T01:05:25;5.38;;;4.88;;
31746;SDS011;18319;48.974;8.462;2023-06-26T01:07:53;5.38;;;4.88;;
31746;SDS011;18319;48.974;8.462;2023-06-26T01:10:21;5.82;;;5.32;;
31746;SDS011;18319;48.974;8.462;2023-06-26T01:12:49;5.55;;;5.07;;
31746;SDS011;18319;48.974;8.462;2023-06-26T01:15:16;6.28;;;5.25;;
31746;SDS011;18319;48.974;8.462;2023-06-26T01:17:42;6.13;;;5.63;;
31746;SDS011;18319;48.974;8.462;2023-06-26T01:20:12;5.43;;;4.93;;
31746;SDS011;18319;48.974;8.462;2023-06-26T01:22:43;6.22;;;5.30;;
31746;SDS011;18319;48.974;8.462;2023-06-26T01:25:18;5.75;;;5.25;;
31746;SDS011;18319;48.974;8.462;2023-06-26T01:27:54;5.25;;;4.75;;
31746;SDS011;18319;48.974;8.462;2023-06-26T01:30:22;6.07;;;4.90;;
31746;SDS011;18319;48.974;8.462;2023-06-26T01:32:50;6.13;;;5.63;;
31746;SDS011;18319;48.974;8.462;2023-06-26T01:35:17;5.30;;;4.90;;
31746;SDS011;18319;48.974;8.462;2023-06-26T01:37:44;6.18;;;5.68;;
31746;SDS011;18319;48.974;8.462;2023-06-26T01:40:10;5.72;;;5.13;;
31746;SDS011;18319;48.974;8.462;2023-06-26T01:42:38;5.78;;;5.18;;
31746;SDS011;18319;48.974;8.462;2023-06-26T01:45:07;5.90;;;5.40;;
31746;SDS011;18319;48.974;8.462;2023-06-26T01:47:38;6.65;;;6.05;;
31746;SDS011;18319;48.974;8.462;2023-06-26T01:50:09;5.88;;;5.38;;
31746;SDS011;18319;48.974;8.462;2023-06-26T01:52:40;5.80;;;5.30;;
31746;SDS011;18319;48.974;8.462;2023-06-26T01:55:11;5.68;;;5.18;;
31746;SDS011;18319;48.974;8.462;2023-06-26T01:57:43;6.05;;;5.53;;
31746;SDS011;18319;48.974;8.462;2023-06-26T02:00:13;6.35;;;5.75;;
31746;SDS011;18319;48.974;8.462;2023-06-26T02:02:43;5.18;;;4.78;;
31746;SDS011;18319;48.974;8.462;2023-06-26T02:05:09;6.10;;;5.32;;
31746;SDS011;18319;48.974;8.462;2023-06-26T02:07:37;6.40;;;5.75;;
31746;SDS011;18319;48.974;8.462;2023-06-26T02:10:05;5.20;;;4.70;;
31746;SDS011;18319;48.974;8.462;2023-06-26T02:12:32;6.10;;;5.55;;
31746;SDS011;18319;48.974;8.462;2023-06-26T02:15:00;4.75;;;4.45;;
31746;SDS011;18319;48.974;8.462;2023-06-26T02:17:28;5.93;;;4.82;;
31746;SDS011;18319;48.974;8.462;2023-06-26T02:19:55;5.60;;;5.10;;
31746;SDS011;18319;48.974;8.462;2023-06-26T02:22:22;6.00;;;5.40;;
31746;SDS011;18319;48.974;8.462;2023-06-26T02:24:49;5.18;;;4.68;;
31746;SDS011;18319;48.974;8.462;2023-06-26T02:27:15;5.70;;;5.22;;
31746;SDS011;18319;48.974;8.462;2023-06-26T02:29:42;5.90;;;5.38;;
31746;SDS011;18319;48.974;8.462;2023-06-26T02:32:09;5.07;;;4.57;;
31746;SDS011;18319;48.974;8.462;2023-06-26T02:34:37;6.43;;;5.38;;
31746;SDS011;18319;48.974;8.462;2023-06-26T02:37:04;5.85;;;5.25;;
31746;SDS011;18319;48.974;8.462;2023-06-26T02:39:32;5.65;;;5.15;;
31746;SDS011;18319;48.974;8.462;2023-06-26T02:41:59;7.22;;;6.53;;
31746;SDS011;18319;48.974;8.462;2023-06-26T02:44:25;5.85;;;5.35;;
31746;SDS011;18319;48.974;8.462;2023-06-26T02:46:52;5.65;;;5.15;;
31746;SDS011;18319;48.974;8.462;2023-06-26T02:49:19;6.40;;;5.10;;
31746;SDS011;18319;48.974;8.462;2023-06-26T02:51:47;5.63;;;5.13;;
31746;SDS011;18319;48.974;8.462;2023-06-26T02:54:14;5.90;;;5.32;;
31746;SDS011;18319;48.974;8.462;2023-06-26T02:56:40;5.40;;;5.00;;
31746;SDS011;18319;48.974;8.462;2023-06-26T02:59:07;5.70;;;5.15;;
31746;SDS011;18319;48.974;8.462;2023-06-26T03:01:34;6.18;;;5.60;;
31746;SDS011;18319;48.974;8.462;2023-06-26T03:04:01;5.85;;;5.25;;
31746;SDS011;18319;48.974;8.462;2023-06-26T03:06:28;5.93;;;4.93;;
31746;SDS011;18319;48.974;8.462;2023-06-26T03:08:56;5.35;;;4.85;;
31746;SDS011;18319;48.974;8.462;2023-06-26T03:11:22;6.05;;;5.47;;
31746;SDS011;18319;48.974;8.462;2023-06-26T03:13:49;5.80;;;5.18;;
31746;SDS011;18319;48.974;8.462;2023-06-26T03:16:16;5.63;;;4.78;;
31746;SDS011;18319;48.974;8.462;2023-06-26T03:18:43;5.78;;;5.22;;
31746;SDS011;18319;48.974;8.462;2023-06-26T03:21:09;5.60;;;4.80;;
31746;SDS011;18319;48.974;8.462;2023-06-26T03:23:38;5.63;;;5.13;;
31746;SDS011;18319;48.974;8.462;2023-06-26T03:26:06;6.22;;;4.95;;
31746;SDS011;18319;48.974;8.462;2023-06-26T03:28:33;5.72;;;4.63;;
31746;SDS011;18319;48.974;8.462;2023-06-26T03:31:00;5.18;;;4.68;;
31746;SDS011;18319;48.974;8.462;2023-06-26T03:33:27;5.40;;;4.90;;
31746;SDS011;18319;48.974;8.462;2023-06-26T03:35:53;5.28;;;4.88;;
31746;SDS011;18319;48.974;8.462;2023-06-26T03:38:21;5.60;;;5.10;;
31746;SDS011;18319;48.974;8.462;2023-06-26T03:40:48;6.05;;;5.45;;
31746;SDS011;18319;48.974;8.462;2023-06-26T03:43:17;5.50;;;5.00;;
31746;SDS011;18319;48.974;8.462;2023-06-26T03:45:43;5.07;;;4.68;;
31746;SDS011;18319;48.974;8.462;2023-06-26T03:48:11;8.43;;;4.95;;
31746;SDS011;18319;48.974;8.462;2023-06-26T03:50:38;5.80;;;5.28;;
31746;SDS011;18319;48.974;8.462;2023-06-26T03:53:04;5.32;;;4.82;;
31746;SDS011;18319;48.974;8.462;2023-06-26T03:55:31;5.78;;;5.28;;
31746;SDS011;18319;48.974;8.462;2023-06-26T03:57:59;5.22;;;4.82;;
31746;SDS011;18319;48.974;8.462;2023-06-26T04:00:27;5.53;;;5.10;;
31746;SDS011;18319;48.974;8.462;2023-06-26T04:02:54;6.13;;;4.45;;
31746;SDS011;18319;48.974;8.462;2023-06-26T04:05:21;6.30;;;5.03;;
31746;SDS011;18319;48.974;8.462;2023-06-26T04:07:49;5.15;;;4.75;;
31746;SDS011;18319;48.974;8.462;2023-06-26T04:10:16;5.55;;;4.97;;
31746;SDS011;18319;48.974;8.462;2023-06-26T04:12:43;5.18;;;4.72;;
31746;SDS011;18319;48.974;8.462;2023-06-26T04:15:10;8.07;;;5.22;;
31746;SDS011;18319;48.974;8.462;2023-06-26T04:17:38;5.82;;;5.32;;
31746;SDS011;18319;48.974;8.462;2023-06-26T04:20:05;5.82;;;5.32;;
31746;SDS011;18319;48.974;8.462;2023-06-26T04:22:33;5.72;;;5.22;;
31746;SDS011;18319;48.974;8.462;2023-06-26T04:25:02;5.85;;;5.32;;
31746;SDS011;18319;48.974;8.462;2023-06-26T04:27:29;5.90;;;5.40;;
31746;SDS011;18319;48.974;8.462;2023-06-26T04:29:56;5.68;;;5.15;;
31746;SDS011;18319;48.974;8.462;2023-06-26T04:32:26;5.88;;;5.38;;
31746;SDS011;18319;48.974;8.462;2023-06-26T04:34:54;5.78;;;5.25;;
31746;SDS011;18319;48.974;8.462;2023-06-26T04:37:21;5.63;;;5.13;;
31746;SDS011;18319;48.974;8.462;2023-06-26T04:39:49;5.70;;;4.57;;
31746;SDS011;18319;48.974;8.462;2023-06-26T04:42:16;5.65;;;5.15;;
31746;SDS011;18319;48.974;8.462;2023-06-26T04:44:44;5.72;;;5.30;;
31746;SDS011;18319;48.974;8.462;2023-06-26T04:47:10;5.40;;;4.90;;
31746;SDS011;18319;48.974;8.462;2023-06-26T04:49:40;5.63;;;5.13;;
31746;SDS011;18319;48.974;8.462;2023-06-26T04:52:09;6.25;;;5.65;;
31746;SDS011;18319;48.974;8.462;2023-06-26T04:54:38;5.95;;;5.45;;
31746;SDS011;18319;48.974;8.462;2023-06-26T04:57:05;5.53;;;5.03;;
31746;SDS011;18319;48.974;8.462;2023-06-26T04:59:33;5.68;;;5.13;;
31746;SDS011;18319;48.974;8.462;2023-06-26T05:02:00;7.03;;;5.38;;
31746;SDS011;18319;48.974;8.462;2023-06-26T05:04:27;6.05;;;5.53;;
31746;SDS011;18319;48.974;8.462;2023-06-26T05:06:54;5.93;;;5.43;;
31746;SDS011;18319;48.974;8.462;2023-06-26T05:09:22;5.78;;;5.28;;
31746;SDS011;18319;48.974;8.462;2023-06-26T05:11:48;6.13;;;5.53;;
31746;SDS011;18319;48.974;8.462;2023-06-26T05:14:15;6.25;;;5.40;;
31746;SDS011;18319;48.974;8.462;2023-06-26T05:16:42;7.55;;;6.00;;
31746;SDS011;18319;48.974;8.462;2023-06-26T05:19:08;6.07;;;5.57;;
31746;SDS011;18319;48.974;8.462;2023-06-26T05:21:35;6.07;;;5.50;;
31746;SDS011;18319;48.974;8.462;2023-06-26T05:24:02;6.60;;;6.00;;
31746;SDS011;18319;48.974;8.462;2023-06-26T05:26:32;5.80;;;5.40;;
31746;SDS011;18319;48.974;8.462;2023-06-26T05:28:59;6.93;;;5.70;;
31746;SDS011;18319;48.974;8.462;2023-06-26T05:31:27;6.70;;;6.10;;
31746;SDS011;18319;48.974;8.462;2023-06-26T05:33:54;6.32;;;5.82;;
31746;SDS011;18319;48.974;8.462;2023-06-26T05:36:23;7.40;;;5.85;;
31746;SDS011;18319;48.974;8.462;2023-06-26T05:38:51;7.72;;;5.38;;
31746;SDS011;18319;48.974;8.462;2023-06-26T05:41:18;6.40;;;5.88;;
31746;SDS011;18319;48.974;8.462;2023-06-26T05:43:46;6.70;;;6.03;;
31746;SDS011;18319;48.974;8.462;2023-06-26T05:46:13;5.93;;;5.35;;
31746;SDS011;18319;48.974;8.462;2023-06-26T05:48:40;5.80;;;5.30;;
31746;SDS011;18319;48.974;8.462;2023-06-26T05:51:07;6.22;;;5.63;;
31746;SDS011;18319;48.974;8.462;2023-06-26T05:53:35;5.85;;;5.35;;
31746;SDS011;18319;48.974;8.462;2023-06-26T05:56:02;6.30;;;5.60;;
31746;SDS011;18319;48.974;8.462;2023-06-26T05:58:29;6.35;;;5.75;;
31746;SDS011;18319;48.974;8.462;2023-06-26T06:00:57;6.60;;;6.00;;
31746;SDS011;18319;48.974;8.462;2023-06-26T06:05:54;6.10;;;5.60;;
31746;SDS011;18319;48.974;8.462;2023-06-26T06:08:21;6.05;;;5.60;;
31746;SDS011;18319;48.974;8.462;2023-06-26T06:10:48;5.57;;;5.05;;
31746;SDS011;18319;48.974;8.462;2023-06-26T06:13:14;5.68;;;5.03;;
31746;SDS011;18319;48.974;8.462;2023-06-26T06:15:41;6.30;;;5.72;;
31746;SDS011;18319;48.974;8.462;2023-06-26T06:18:09;6.45;;;5.88;;
31746;SDS011;18319;48.974;8.462;2023-06-26T06:20:36;5.72;;;5.10;;
31746;SDS011;18319;48.974;8.462;2023-06-26T06:23:03;5.93;;;5.30;;
31746;SDS011;18319;48.974;8.462;2023-06-26T06:25:29;6.40;;;5.57;;
31746;SDS011;18319;48.974;8.462;2023-06-26T06:27:56;6.28;;;5.78;;
31746;SDS011;18319;48.974;8.462;2023-06-26T06:30:23;6.40;;;5.80;;
31746;SDS011;18319;48.974;8.462;2023-06-26T06:32:50;5.93;;;5.43;;
31746;SDS011;18319;48.974;8.462;2023-06-26T06:35:19;9.43;;;6.38;;
31746;SDS011;18319;48.974;8.462;2023-06-26T06:37:45;5.82;;;5.32;;
31746;SDS011;18319;48.974;8.462;2023-06-26T06:40:12;6.40;;;5.80;;
31746;SDS011;18319;48.974;8.462;2023-06-26T06:42:39;7.38;;;5.53;;
31746;SDS011;18319;48.974;8.462;2023-06-26T06:45:06;5.40;;;5.00;;
31746;SDS011;18319;48.974;8.462;2023-06-26T06:47:33;6.57;;;5.95;;
31746;SDS011;18319;48.974;8.462;2023-06-26T06:50:00;5.28;;;4.88;;
31746;SDS011;18319;48.974;8.462;2023-06-26T06:52:35;5.60;;;5.13;;
31746;SDS011;18319;48.974;8.462;2023-06-26T06:55:03;5.90;;;5.40;;
31746;SDS011;18319;48.974;8.462;2023-06-26T06:57:33;6.32;;;5.53;;
31746;SDS011;18319;48.974;8.462;2023-06-26T07:00:02;5.07;;;4.68;;
31746;SDS011;18319;48.974;8.462;2023-06-26T07:02:30;5.90;;;5.40;;
31746;SDS011;18319;48.974;8.462;2023-06-26T07:04:57;6.88;;;5.72;;
31746;SDS011;18319;48.974;8.462;2023-06-26T07:07:25;6.05;;;5.47;;
31746;SDS011;18319;48.974;8.462;2023-06-26T07:09:57;6.57;;;5.95;;
31746;SDS011;18319;48.974;8.462;2023-06-26T07:12:24;7.88;;;7.18;;
31746;SDS011;18319;48.974;8.462;2023-06-26T07:14:51;6.65;;;5.47;;
31746;SDS011;18319;48.974;8.462;2023-06-26T07:17:18;6.05;;;5.53;;
31746;SDS011;18319;48.974;8.462;2023-06-26T07:19:45;167.52;;;25.27;;
31746;SDS011;18319;48.974;8.462;2023-06-26T07:22:12;155.98;;;24.85;;
31746;SDS011;18319;48.974;8.462;2023-06-26T07:24:39;19.08;;;8.10;;
31746;SDS011;18319;48.974;8.462;2023-06-26T07:27:07;9.00;;;6.35;;
31746;SDS011;18319;48.974;8.462;2023-06-26T07:29:34;10.05;;;6.50;;
31746;SDS011;18319;48.974;8.462;2023-06-26T07:32:01;6.70;;;5.60;;
31746;SDS011;18319;48.974;8.462;2023-06-26T07:34:28;5.88;;;5.38;;
31746;SDS011;18319;48.974;8.462;2023-06-26T07:36:54;8.93;;;6.13;;
31746;SDS011;18319;48.974;8.462;2023-06-26T07:39:21;5.55;;;4.75;;
31746;SDS011;18319;48.974;8.462;2023-06-26T07:41:48;5.25;;;4.85;;
31746;SDS011;18319;48.974;8.462;2023-06-26T07:44:16;6.43;;;5.78;;
31746;SDS011;18319;48.974;8.462;2023-06-26T07:46:43;5.00;;;4.53;;
31746;SDS011;18319;48.974;8.462;2023-06-26T07:49:09;6.03;;;5.32;;
31746;SDS011;18319;48.974;8.462;2023-06-26T07:51:36;4.80;;;4.50;;
31746;SDS011;18319;48.974;8.462;2023-06-26T07:54:03;5.35;;;4.85;;
31746;SDS011;18319;48.974;8.462;2023-06-26T07:56:30;6.57;;;4.82;;
31746;SDS011;18319;48.974;8.462;2023-06-26T07:58:57;6.28;;;5.70;;
31746;SDS011;18319;48.974;8.462;2023-06-26T08:01:26;5.43;;;5.03;;
31746;SDS011;18319;48.974;8.462;2023-06-26T08:03:53;6.25;;;4.82;;
31746;SDS011;18319;48.974;8.462;2023-06-26T08:06:22;8.00;;;5.80;;
31746;SDS011;18319;48.974;8.462;2023-06-26T08:08:49;5.15;;;4.65;;
31746;SDS011;18319;48.974;8.462;2023-06-26T08:11:15;5.20;;;4.55;;
31746;SDS011;18319;48.974;8.462;2023-06-26T08:13:43;4.55;;;4.05;;
31746;SDS011;18319;48.974;8.462;2023-06-26T08:16:10;5.50;;;4.40;;
31746;SDS011;18319;48.974;8.462;2023-06-26T08:18:38;5.30;;;4.90;;
31746;SDS011;18319;48.974;8.462;2023-06-26T08:21:05;5.03;;;4.63;;
31746;SDS011;18319;48.974;8.462;2023-06-26T08:23:31;4.18;;;3.88;;
31746;SDS011;18319;48.974;8.462;2023-06-26T08:25:58;4.35;;;4.03;;
31746;SDS011;18319;48.974;8.462;2023-06-26T08:28:25;5.00;;;4.70;;
31746;SDS011;18319;48.974;8.462;2023-06-26T08:30:51;4.50;;;4.22;;
31746;SDS011;18319;48.974;8.462;2023-06-26T08:33:19;5.40;;;4.93;;
31746;SDS011;18319;48.974;8.462;2023-06-26T08:35:47;9.43;;;5.03;;
31746;SDS011;18319;48.974;8.462;2023-06-26T08:38:14;4.90;;;4.53;;
31746;SDS011;18319;48.974;8.462;2023-06-26T08:40:41;5.60;;;5.20;;
31746;SDS011;18319;48.974;8.462;2023-06-26T08:43:08;5.55;;;5.15;;
31746;SDS011;18319;48.974;8.462;2023-06-26T08:45:34;6.28;;;5.20;;
31746;SDS011;18319;48.974;8.462;2023-06-26T08:48:01;4.95;;;4.63;;
31746;SDS011;18319;48.974;8.462;2023-06-26T08:50:32;6.45;;;6.03;;
31746;SDS011;18319;48.974;8.462;2023-06-26T08:53:03;7.03;;;4.47;;
31746;SDS011;18319;48.974;8.462;2023-06-26T08:55:36;5.22;;;4.72;;
31746;SDS011;18319;48.974;8.462;2023-06-26T08:58:07;7.18;;;5.45;;
31746;SDS011;18319;48.974;8.462;2023-06-26T09:00:33;4.88;;;4.53;;
31746;SDS011;18319;48.974;8.462;2023-06-26T09:03:01;4.85;;;4.45;;
31746;SDS011;18319;48.974;8.462;2023-06-26T09:05:30;5.35;;;5.05;;
31746;SDS011;18319;48.974;8.462;2023-06-26T09:07:57;5.55;;;5.15;;
31746;SDS011;18319;48.974;8.462;2023-06-26T09:10:26;5.60;;;5.10;;
31746;SDS011;18319;48.974;8.462;2023-06-26T09:12:54;5.25;;;4.85;;
31746;SDS011;18319;48.974;8.462;2023-06-26T09:15:22;4.93;;;4.43;;
31746;SDS011;18319;48.974;8.462;2023-06-26T09:17:49;5.32;;;4.82;;
31746;SDS011;18319;48.974;8.462;2023-06-26T09:20:16;6.00;;;4.75;;
31746;SDS011;18319;48.974;8.462;2023-06-26T09:22:46;4.93;;;4.53;;
31746;SDS011;18319;48.974;8.462;2023-06-26T09:25:14;4.80;;;4.45;;
31746;SDS011;18319;48.974;8.462;2023-06-26T09:27:42;5.28;;;4.93;;
31746;SDS011;18319;48.974;8.462;2023-06-26T09:30:10;5.03;;;4.20;;
31746;SDS011;18319;48.974;8.462;2023-06-26T09:32:37;5.22;;;4.90;;
31746;SDS011;18319;48.974;8.462;2023-06-26T09:35:04;6.70;;;4.70;;
31746;SDS011;18319;48.974;8.462;2023-06-26T09:37:31;5.15;;;4.55;;
31746;SDS011;18319;48.974;8.462;2023-06-26T09:40:00;5.32;;;4.93;;
31746;SDS011;18319;48.974;8.462;2023-06-26T09:42:27;4.90;;;4.60;;
31746;SDS011;18319;48.974;8.462;2023-06-26T09:44:56;4.95;;;4.65;;
31746;SDS011;18319;48.974;8.462;2023-06-26T09:47:23;5.80;;;4.72;;
31746;SDS011;18319;48.974;8.462;2023-06-26T09:49:50;5.10;;;4.72;;
31746;SDS011;18319;48.974;8.462;2023-06-26T09:52:17;4.97;;;4.68;;
31746;SDS011;18319;48.974;8.462;2023-06-26T09:54:45;4.50;;;4.20;;
31746;SDS011;18319;48.974;8.462;2023-06-26T09:57:12;4.97;;;4.65;;
31746;SDS011;18319;48.974;8.462;2023-06-26T09:59:41;5.47;;;4.97;;
31746;SDS011;18319;48.974;8.462;2023-06-26T10:02:10;7.95;;;5.03;;
31746;SDS011;18319;48.974;8.462;2023-06-26T10:04:38;8.40;;;4.95;;
31746;SDS011;18319;48.974;8.462;2023-06-26T10:07:05;4.80;;;4.38;;
31746;SDS011;18319;48.974;8.462;2023-06-26T10:09:34;5.30;;;4.90;;
31746;SDS011;18319;48.974;8.462;2023-06-26T10:12:05;5.00;;;4.65;;
31746;SDS011;18319;48.974;8.462;2023-06-26T10:14:37;5.57;;;5.15;;
31746;SDS011;18319;48.974;8.462;2023-06-26T10:17:06;9.48;;;6.60;;
31746;SDS011;18319;48.974;8.462;2023-06-26T10:19:37;5.10;;;4.65;;
31746;SDS011;18319;48.974;8.462;2023-06-26T10:22:06;5.93;;;5.22;;
31746;SDS011;18319;48.974;8.462;2023-06-26T10:24:35;5.00;;;4.65;;
31746;SDS011;18319;48.974;8.462;2023-06-26T10:27:04;5.07;;;4.57;;
31746;SDS011;18319;48.974;8.462;2023-06-26T10:29:36;5.28;;;4.97;;
31746;SDS011;18319;48.974;8.462;2023-06-26T10:32:03;6.10;;;5.40;;
31746;SDS011;18319;48.974;8.462;2023-06-26T10:34:31;5.45;;;4.70;;
31746;SDS011;18319;48.974;8.462;2023-06-26T10:37:03;6.45;;;4.88;;
31746;SDS011;18319;48.974;8.462;2023-06-26T10:39:36;5.57;;;5.10;;
31746;SDS011;18319;48.974;8.462;2023-06-26T10:42:13;5.32;;;4.93;;
31746;SDS011;18319;48.974;8.462;2023-06-26T10:44:41;5.88;;;5.38;;
31746;SDS011;18319;48.974;8.462;2023-06-26T10:47:08;5.25;;;4.95;;
31746;SDS011;18319;48.974;8.462;2023-06-26T10:49:37;5.10;;;4.70;;
31746;SDS011;18319;48.974;8.462;2023-06-26T10:52:05;5.20;;;4.80;;
31746;SDS011;18319;48.974;8.462;2023-06-26T10:54:32;5.25;;;4.95;;
31746;SDS011;18319;48.974;8.462;2023-06-26T10:56:59;5.35;;;4.85;;
31746;SDS011;18319;48.974;8.462;2023-06-26T10:59:28;5.30;;;4.80;;
31746;SDS011;18319;48.974;8.462;2023-06-26T11:01:59;6.20;;;4.63;;
31746;SDS011;18319;48.974;8.462;2023-06-26T11:04:37;5.13;;;4.72;;
31746;SDS011;18319;48.974;8.462;2023-06-26T11:07:16;7.50;;;4.88;;
31746;SDS011;18319;48.974;8.462;2023-06-26T11:09:54;4.05;;;3.85;;
31746;SDS011;18319;48.974;8.462;2023-06-26T11:12:35;5.20;;;4.80;;
31746;SDS011;18319;48.974;8.462;2023-06-26T11:15:03;5.50;;;4.47;;
31746;SDS011;18319;48.974;8.462;2023-06-26T11:17:30;4.63;;;4.32;;
31746;SDS011;18319;48.974;8.462;2023-06-26T11:19:59;4.63;;;4.30;;
31746;SDS011;18319;48.974;8.462;2023-06-26T11:22:26;6.15;;;5.63;;
31746;SDS011;18319;48.974;8.462;2023-06-26T11:24:53;4.75;;;4.40;;
31746;SDS011;18319;48.974;8.462;2023-06-26T11:27:20;5.05;;;4.65;;
31746;SDS011;18319;48.974;8.462;2023-06-26T11:29:49;5.35;;;4.80;;
31746;SDS011;18319;48.974;8.462;2023-06-26T11:32:16;5.32;;;4.90;;
31746;SDS011;18319;48.974;8.462;2023-06-26T11:34:44;4.93;;;4.45;;
31746;SDS011;18319;48.974;8.462;2023-06-26T11:37:12;4.80;;;4.50;;
31746;SDS011;18319;48.974;8.462;2023-06-26T11:39:42;5.03;;;4.28;;
31746;SDS011;18319;48.974;8.462;2023-06-26T11:42:10;4.43;;;4.10;;
31746;SDS011;18319;48.974;8.462;2023-06-26T11:44:40;5.65;;;4.28;;
31746;SDS011;18319;48.974;8.462;2023-06-26T11:47:11;5.85;;;4.22;;
31746;SDS011;18319;48.974;8.462;2023-06-26T11:49:39;5.40;;;3.60;;
31746;SDS011;18319;48.974;8.462;2023-06-26T11:52:08;4.25;;;3.92;;
31746;SDS011;18319;48.974;8.462;2023-06-26T11:54:39;32.70;;;7.35;;
31746;SDS011;18319;48.974;8.462;2023-06-26T11:57:06;3.97;;;3.60;;
31746;SDS011;18319;48.974;8.462;2023-06-26T11:59:33;4.32;;;3.85;;
31746;SDS011;18319;48.974;8.462;2023-06-26T12:02:06;4.45;;;4.05;;
31746;SDS011;18319;48.974;8.462;2023-06-26T12:04:34;3.70;;;3.40;;
31746;SDS011;18319;48.974;8.462;2023-06-26T12:07:04;3.63;;;3.33;;
31746;SDS011;18319;48.974;8.462;2023-06-26T12:09:34;4.68;;;3.47;;
31746;SDS011;18319;48.974;8.462;2023-06-26T12:12:05;4.70;;;4.07;;
31746;SDS011;18319;48.974;8.462;2023-06-26T12:14:34;5.07;;;3.67;;
31746;SDS011;18319;48.974;8.462;2023-06-26T12:17:04;3.45;;;3.25;;
31746;SDS011;18319;48.974;8.462;2023-06-26T12:19:33;3.65;;;3.25;;
31746;SDS011;18319;48.974;8.462;2023-06-26T12:22:05;3.92;;;3.63;;
31746;SDS011;18319;48.974;8.462;2023-06-26T12:24:33;9.30;;;2.95;;
31746;SDS011;18319;48.974;8.462;2023-06-26T12:27:07;4.03;;;2.83;;
31746;SDS011;18319;48.974;8.462;2023-06-26T12:29:34;2.70;;;2.50;;
31746;SDS011;18319;48.974;8.462;2023-06-26T12:32:02;2.92;;;2.70;;
31746;SDS011;18319;48.974;8.462;2023-06-26T12:34:30;2.78;;;2.60;;
31746;SDS011;18319;48.974;8.462;2023-06-26T12:36:59;2.85;;;2.65;;
31746;SDS011;18319;48.974;8.462;2023-06-26T12:39:28;3.30;;;3.03;;
31746;SDS011;18319;48.974;8.462;2023-06-26T12:41:56;3.05;;;2.67;;
31746;SDS011;18319;48.974;8.462;2023-06-26T12:44:29;2.88;;;2.17;;
31746;SDS011;18319;48.974;8.462;2023-06-26T12:46:58;2.55;;;2.33;;
31746;SDS011;18319;48.974;8.462;2023-06-26T12:49:29;3.13;;;2.67;;
31746;SDS011;18319;48.974;8.462;2023-06-26T12:51:58;1.88;;;1.77;;
31746;SDS011;18319;48.974;8.462;2023-06-26T12:54:25;3.13;;;2.30;;
31746;SDS011;18319;48.974;8.462;2023-06-26T12:56:52;3.05;;;2.30;;
31746;SDS011;18319;48.974;8.462;2023-06-26T12:59:19;2.25;;;2.10;;
31746;SDS011;18319;48.974;8.462;2023-06-26T13:01:48;2.53;;;2.22;;
31746;SDS011;18319;48.974;8.462;2023-06-26T13:04:15;3.35;;;1.73;;
31746;SDS011;18319;48.974;8.462;2023-06-26T13:06:42;2.90;;;2.45;;
31746;SDS011;18319;48.974;8.462;2023-06-26T13:09:09;1.85;;;1.67;;
31746;SDS011;18319;48.974;8.462;2023-06-26T13:11:36;2.55;;;2.35;;
31746;SDS011;18319;48.974;8.462;2023-06-26T13:14:04;5.35;;;2.28;;
31746;SDS011;18319;48.974;8.462;2023-06-26T13:16:31;2.67;;;2.47;;
31746;SDS011;18319;48.974;8.462;2023-06-26T13:18:59;6.35;;;2.40;;
31746;SDS011;18319;48.974;8.462;2023-06-26T13:21:26;3.10;;;2.15;;
31746;SDS011;18319;48.974;8.462;2023-06-26T13:23:53;3.10;;;2.38;;
31746;SDS011;18319;48.974;8.462;2023-06-26T13:26:20;3.67;;;2.80;;
31746;SDS011;18319;48.974;8.462;2023-06-26T13:28:47;3.83;;;2.33;;
31746;SDS011;18319;48.974;8.462;2023-06-26T13:31:14;2.70;;;2.50;;
31746;SDS011;18319;48.974;8.462;2023-06-26T13:33:41;2.95;;;2.33;;
31746;SDS011;18319;48.974;8.462;2023-06-26T13:36:11;4.20;;;2.72;;
31746;SDS011;18319;48.974;8.462;2023-06-26T13:38:38;4.10;;;2.83;;
31746;SDS011;18319;48.974;8.462;2023-06-26T13:41:05;3.85;;;2.78;;
31746;SDS011;18319;48.974;8.462;2023-06-26T13:43:32;5.20;;;3.25;;
31746;SDS011;18319;48.974;8.462;2023-06-26T13:45:59;2.70;;;2.50;;
31746;SDS011;18319;48.974;8.462;2023-06-26T13:48:27;3.75;;;3.20;;
31746;SDS011;18319;48.974;8.462;2023-06-26T13:50:55;3.15;;;2.90;;
31746;SDS011;18319;48.974;8.462;2023-06-26T13:53:23;4.13;;;3.38;;
31746;SDS011;18319;48.974;8.462;2023-06-26T13:55:50;4.15;;;3.72;;
31746;SDS011;18319;48.974;8.462;2023-06-26T13:58:17;3.53;;;3.20;;
31746;SDS011;18319;48.974;8.462;2023-06-26T14:00:47;4.13;;;3.72;;
31746;SDS011;18319;48.974;8.462;2023-06-26T14:03:14;4.00;;;3.70;;
31746;SDS011;18319;48.974;8.462;2023-06-26T14:05:42;4.55;;;4.25;;
31746;SDS011;18319;48.974;8.462;2023-06-26T14:08:09;4.32;;;3.85;;
31746;SDS011;18319;48.974;8.462;2023-06-26T14:10:37;5.55;;;5.03;;
31746;SDS011;18319;48.974;8.462;2023-06-26T14:13:04;5.15;;;4.65;;
31746;SDS011;18319;48.974;8.462;2023-06-26T14:15:32;5.18;;;4.63;;
31746;SDS011;18319;48.974;8.462;2023-06-26T14:18:00;4.75;;;4.35;;
31746;SDS011;18319;48.974;8.462;2023-06-26T14:20:28;5.75;;;5.13;;
31746;SDS011;18319;48.974;8.462;2023-06-26T14:22:57;7.10;;;4.78;;
31746;SDS011;18319;48.974;8.462;2023-06-26T14:25:24;5.03;;;4.38;;
31746;SDS011;18319;48.974;8.462;2023-06-26T14:27:54;6.55;;;4.05;;
31746;SDS011;18319;48.974;8.462;2023-06-26T14:30:21;5.13;;;4.32;;
31746;SDS011;18319;48.974;8.462;2023-06-26T14:32:48;4.32;;;4.03;;
31746;SDS011;18319;48.974;8.462;2023-06-26T14:35:14;7.97;;;4.03;;
31746;SDS011;18319;48.974;8.462;2023-06-26T14:37:41;6.13;;;4.00;;
31746;SDS011;18319;48.974;8.462;2023-06-26T14:40:09;4.45;;;3.80;;
31746;SDS011;18319;48.974;8.462;2023-06-26T14:42:36;5.25;;;4.18;;
31746;SDS011;18319;48.974;8.462;2023-06-26T14:45:05;6.60;;;4.45;;
31746;SDS011;18319;48.974;8.462;2023-06-26T14:47:33;4.13;;;3.80;;
31746;SDS011;18319;48.974;8.462;2023-06-26T14:49:59;8.93;;;4.93;;
31746;SDS011;18319;48.974;8.462;2023-06-26T14:52:26;4.95;;;4.13;;
31746;SDS011;18319;48.974;8.462;2023-06-26T14:54:53;5.30;;;4.80;;